sensor_id;sensor_type;location;lat;lon;timestamp;temperature;humidity
11989;DHT22;6054;50.966;7.094;2022-12-18T00:02:21;2.70;42.80
11989;DHT22;6054;50.966;7.094;2022-12-18T00:04:48;2.70;44.40
11989;DHT22;6054;50.966;7.094;2022-12-18T00:07:15;2.70;43.30
11989;DHT22;6054;50.966;7.094;2022-12-18T00:09:41;2.70;43.80
11989;DHT22;6054;50.966;7.094;2022-12-18T00:12:08;2.90;43.80
11989;DHT22;6054;50.966;7.094;2022-12-18T00:14:36;2.70;43.50
11989;DHT22;6054;50.966;7.094;2022-12-18T00:17:03;2.70;43.40
11989;DHT22;6054;50.966;7.094;2022-12-18T00:19:30;2.70;44.10
11989;DHT22;6054;50.966;7.094;2022-12-18T00:21:57;2.90;43.70
11989;DHT22;6054;50.966;7.094;2022-12-18T00:24:23;2.70;44.40
11989;DHT22;6054;50.966;7.094;2022-12-18T00:26:50;2.70;44.20
11989;DHT22;6054;50.966;7.094;2022-12-18T00:29:17;2.70;43.60
11989;DHT22;6054;50.966;7.094;2022-12-18T00:31:45;2.80;43.50
11989;DHT22;6054;50.966;7.094;2022-12-18T00:34:13;2.80;43.80
11989;DHT22;6054;50.966;7.094;2022-12-18T00:36:40;2.80;44.90
11989;DHT22;6054;50.966;7.094;2022-12-18T00:39:07;2.80;44.60
11989;DHT22;6054;50.966;7.094;2022-12-18T00:41:34;2.80;44.70
11989;DHT22;6054;50.966;7.094;2022-12-18T00:44:18;2.80;44.60
11989;DHT22;6054;50.966;7.094;2022-12-18T00:46:47;2.80;44.80
11989;DHT22;6054;50.966;7.094;2022-12-18T00:49:15;2.70;44.70
11989;DHT22;6054;50.966;7.094;2022-12-18T00:51:42;2.70;44.80
11989;DHT22;6054;50.966;7.094;2022-12-18T00:54:09;2.70;44.30
11989;DHT22;6054;50.966;7.094;2022-12-18T00:56:37;2.80;44.20
11989;DHT22;6054;50.966;7.094;2022-12-18T00:59:04;2.70;44.60
11989;DHT22;6054;50.966;7.094;2022-12-18T01:01:32;2.60;44.50
11989;DHT22;6054;50.966;7.094;2022-12-18T01:04:01;2.70;44.50
11989;DHT22;6054;50.966;7.094;2022-12-18T01:06:28;2.60;44.80
11989;DHT22;6054;50.966;7.094;2022-12-18T01:08:55;2.70;44.20
11989;DHT22;6054;50.966;7.094;2022-12-18T01:11:22;2.60;44.00
11989;DHT22;6054;50.966;7.094;2022-12-18T01:13:51;2.70;44.80
11989;DHT22;6054;50.966;7.094;2022-12-18T01:16:18;2.70;44.80
11989;DHT22;6054;50.966;7.094;2022-12-18T01:18:45;2.60;43.50
11989;DHT22;6054;50.966;7.094;2022-12-18T01:21:14;2.60;43.40
11989;DHT22;6054;50.966;7.094;2022-12-18T01:23:45;2.50;44.40
11989;DHT22;6054;50.966;7.094;2022-12-18T01:26:14;2.50;43.30
11989;DHT22;6054;50.966;7.094;2022-12-18T01:28:41;2.50;44.80
11989;DHT22;6054;50.966;7.094;2022-12-18T01:31:13;2.50;44.40
11989;DHT22;6054;50.966;7.094;2022-12-18T01:33:40;2.50;44.60
11989;DHT22;6054;50.966;7.094;2022-12-18T01:36:08;2.50;43.20
11989;DHT22;6054;50.966;7.094;2022-12-18T01:38:36;2.50;44.40
11989;DHT22;6054;50.966;7.094;2022-12-18T01:41:03;2.40;43.80
11989;DHT22;6054;50.966;7.094;2022-12-18T01:43:47;2.40;44.60
11989;DHT22;6054;50.966;7.094;2022-12-18T01:46:16;2.40;45.50
11989;DHT22;6054;50.966;7.094;2022-12-18T01:48:44;2.50;45.40
11989;DHT22;6054;50.966;7.094;2022-12-18T01:51:13;2.50;44.90
11989;DHT22;6054;50.966;7.094;2022-12-18T01:53:42;2.50;43.70
11989;DHT22;6054;50.966;7.094;2022-12-18T01:56:13;2.50;44.80
11989;DHT22;6054;50.966;7.094;2022-12-18T01:58:46;2.60;45.20
11989;DHT22;6054;50.966;7.094;2022-12-18T02:01:15;2.60;45.00
11989;DHT22;6054;50.966;7.094;2022-12-18T02:03:42;2.80;44.00
11989;DHT22;6054;50.966;7.094;2022-12-18T02:06:15;2.80;44.50
11989;DHT22;6054;50.966;7.094;2022-12-18T02:08:49;2.60;45.10
11989;DHT22;6054;50.966;7.094;2022-12-18T02:11:24;2.60;45.00
11989;DHT22;6054;50.966;7.094;2022-12-18T02:13:57;2.60;44.80
11989;DHT22;6054;50.966;7.094;2022-12-18T02:16:32;2.80;44.40
11989;DHT22;6054;50.966;7.094;2022-12-18T02:19:03;2.50;44.20
11989;DHT22;6054;50.966;7.094;2022-12-18T02:21:40;2.70;44.80
11989;DHT22;6054;50.966;7.094;2022-12-18T02:24:21;2.50;44.50
11989;DHT22;6054;50.966;7.094;2022-12-18T02:26:56;2.50;44.20
11989;DHT22;6054;50.966;7.094;2022-12-18T02:29:26;2.50;44.30
11989;DHT22;6054;50.966;7.094;2022-12-18T02:31:59;2.60;44.30
11989;DHT22;6054;50.966;7.094;2022-12-18T02:34:29;2.40;44.70
11989;DHT22;6054;50.966;7.094;2022-12-18T02:36:58;2.40;44.90
11989;DHT22;6054;50.966;7.094;2022-12-18T02:39:27;2.30;44.20
11989;DHT22;6054;50.966;7.094;2022-12-18T02:41:57;2.30;43.50
11989;DHT22;6054;50.966;7.094;2022-12-18T02:44:25;2.30;44.50
11989;DHT22;6054;50.966;7.094;2022-12-18T02:46:53;2.30;43.50
11989;DHT22;6054;50.966;7.094;2022-12-18T02:49:32;2.20;42.50
11989;DHT22;6054;50.966;7.094;2022-12-18T02:52:07;2.20;44.10
11989;DHT22;6054;50.966;7.094;2022-12-18T02:54:51;2.20;44.10
11989;DHT22;6054;50.966;7.094;2022-12-18T02:57:32;2.10;44.10
11989;DHT22;6054;50.966;7.094;2022-12-18T03:00:03;2.10;44.10
11989;DHT22;6054;50.966;7.094;2022-12-18T03:02:36;2.10;43.90
11989;DHT22;6054;50.966;7.094;2022-12-18T03:05:09;2.10;43.90
11989;DHT22;6054;50.966;7.094;2022-12-18T03:07:42;2.10;43.80
11989;DHT22;6054;50.966;7.094;2022-12-18T03:10:14;2.00;44.00
11989;DHT22;6054;50.966;7.094;2022-12-18T03:12:48;2.00;43.30
11989;DHT22;6054;50.966;7.094;2022-12-18T03:15:19;2.00;43.60
11989;DHT22;6054;50.966;7.094;2022-12-18T03:17:52;2.20;43.80
11989;DHT22;6054;50.966;7.094;2022-12-18T03:20:22;1.90;43.90
11989;DHT22;6054;50.966;7.094;2022-12-18T03:22:55;1.90;43.80
11989;DHT22;6054;50.966;7.094;2022-12-18T03:25:25;1.90;43.60
11989;DHT22;6054;50.966;7.094;2022-12-18T03:27:56;1.90;43.70
11989;DHT22;6054;50.966;7.094;2022-12-18T03:30:26;1.80;43.50
11989;DHT22;6054;50.966;7.094;2022-12-18T03:33:01;1.80;43.20
11989;DHT22;6054;50.966;7.094;2022-12-18T03:35:31;1.80;43.70
11989;DHT22;6054;50.966;7.094;2022-12-18T03:38:00;1.80;43.50
11989;DHT22;6054;50.966;7.094;2022-12-18T03:40:31;1.90;41.80
11989;DHT22;6054;50.966;7.094;2022-12-18T03:43:08;1.80;43.60
11989;DHT22;6054;50.966;7.094;2022-12-18T03:45:39;1.70;43.50
11989;DHT22;6054;50.966;7.094;2022-12-18T03:48:09;1.70;43.50
11989;DHT22;6054;50.966;7.094;2022-12-18T03:50:46;1.70;43.30
11989;DHT22;6054;50.966;7.094;2022-12-18T03:53:21;1.70;43.50
11989;DHT22;6054;50.966;7.094;2022-12-18T03:55:50;1.60;43.60
11989;DHT22;6054;50.966;7.094;2022-12-18T03:58:22;1.70;43.30
11989;DHT22;6054;50.966;7.094;2022-12-18T04:00:51;1.60;43.30
11989;DHT22;6054;50.966;7.094;2022-12-18T04:03:19;1.60;43.30
11989;DHT22;6054;50.966;7.094;2022-12-18T04:05:48;1.60;42.80
11989;DHT22;6054;50.966;7.094;2022-12-18T04:08:16;1.60;43.30
11989;DHT22;6054;50.966;7.094;2022-12-18T04:10:43;1.50;42.80
11989;DHT22;6054;50.966;7.094;2022-12-18T04:13:10;1.80;41.50
11989;DHT22;6054;50.966;7.094;2022-12-18T04:15:39;1.50;41.80
11989;DHT22;6054;50.966;7.094;2022-12-18T04:18:06;1.80;42.70
11989;DHT22;6054;50.966;7.094;2022-12-18T04:20:33;1.50;42.70
11989;DHT22;6054;50.966;7.094;2022-12-18T04:23:00;1.50;42.00
11989;DHT22;6054;50.966;7.094;2022-12-18T04:25:28;1.50;41.00
11989;DHT22;6054;50.966;7.094;2022-12-18T04:27:54;1.40;41.60
11989;DHT22;6054;50.966;7.094;2022-12-18T04:30:21;1.50;41.00
11989;DHT22;6054;50.966;7.094;2022-12-18T04:32:49;1.40;40.80
11989;DHT22;6054;50.966;7.094;2022-12-18T04:35:16;1.40;41.60
11989;DHT22;6054;50.966;7.094;2022-12-18T04:37:43;1.40;41.20
11989;DHT22;6054;50.966;7.094;2022-12-18T04:40:11;1.50;42.10
11989;DHT22;6054;50.966;7.094;2022-12-18T04:42:39;1.50;42.40
11989;DHT22;6054;50.966;7.094;2022-12-18T04:45:07;1.40;42.30
11989;DHT22;6054;50.966;7.094;2022-12-18T04:47:34;1.40;42.20
11989;DHT22;6054;50.966;7.094;2022-12-18T04:50:03;1.40;42.50
11989;DHT22;6054;50.966;7.094;2022-12-18T04:52:31;1.40;42.40
11989;DHT22;6054;50.966;7.094;2022-12-18T04:54:58;1.40;43.50
11989;DHT22;6054;50.966;7.094;2022-12-18T04:57:25;1.60;41.70
11989;DHT22;6054;50.966;7.094;2022-12-18T04:59:51;1.50;41.00
11989;DHT22;6054;50.966;7.094;2022-12-18T05:02:18;1.70;41.40
11989;DHT22;6054;50.966;7.094;2022-12-18T05:04:45;1.60;40.90
11989;DHT22;6054;50.966;7.094;2022-12-18T05:07:13;1.30;41.50
11989;DHT22;6054;50.966;7.094;2022-12-18T05:09:40;1.60;41.70
11989;DHT22;6054;50.966;7.094;2022-12-18T05:12:07;1.30;41.30
11989;DHT22;6054;50.966;7.094;2022-12-18T05:14:33;1.20;40.90
11989;DHT22;6054;50.966;7.094;2022-12-18T05:17:00;1.20;40.80
11989;DHT22;6054;50.966;7.094;2022-12-18T05:19:27;1.20;40.30
11989;DHT22;6054;50.966;7.094;2022-12-18T05:21:54;1.50;41.20
11989;DHT22;6054;50.966;7.094;2022-12-18T05:24:22;1.20;41.40
11989;DHT22;6054;50.966;7.094;2022-12-18T05:26:49;1.50;41.80
11989;DHT22;6054;50.966;7.094;2022-12-18T05:29:16;1.20;41.50
11989;DHT22;6054;50.966;7.094;2022-12-18T05:31:43;1.20;41.60
11989;DHT22;6054;50.966;7.094;2022-12-18T05:34:10;1.40;41.70
11989;DHT22;6054;50.966;7.094;2022-12-18T05:36:36;1.10;40.80
11989;DHT22;6054;50.966;7.094;2022-12-18T05:39:03;1.10;40.90
11989;DHT22;6054;50.966;7.094;2022-12-18T05:41:31;1.10;41.20
11989;DHT22;6054;50.966;7.094;2022-12-18T05:43:59;1.10;42.10
11989;DHT22;6054;50.966;7.094;2022-12-18T05:46:26;1.10;41.10
11989;DHT22;6054;50.966;7.094;2022-12-18T05:48:52;1.10;41.80
11989;DHT22;6054;50.966;7.094;2022-12-18T05:51:21;1.40;42.50
11989;DHT22;6054;50.966;7.094;2022-12-18T05:53:48;1.20;42.50
11989;DHT22;6054;50.966;7.094;2022-12-18T05:56:19;1.10;40.70
11989;DHT22;6054;50.966;7.094;2022-12-18T05:58:50;1.10;42.70
11989;DHT22;6054;50.966;7.094;2022-12-18T06:01:20;1.10;42.80
11989;DHT22;6054;50.966;7.094;2022-12-18T06:03:47;1.00;42.30
11989;DHT22;6054;50.966;7.094;2022-12-18T06:06:16;1.10;41.10
11989;DHT22;6054;50.966;7.094;2022-12-18T06:08:43;1.10;42.40
11989;DHT22;6054;50.966;7.094;2022-12-18T06:11:10;1.00;41.00
11989;DHT22;6054;50.966;7.094;2022-12-18T06:13:37;1.00;41.40
11989;DHT22;6054;50.966;7.094;2022-12-18T06:16:06;1.00;42.10
11989;DHT22;6054;50.966;7.094;2022-12-18T06:18:33;0.80;41.50
11989;DHT22;6054;50.966;7.094;2022-12-18T06:21:00;1.00;41.30
11989;DHT22;6054;50.966;7.094;2022-12-18T06:23:27;1.00;40.70
11989;DHT22;6054;50.966;7.094;2022-12-18T06:25:54;1.00;41.60
11989;DHT22;6054;50.966;7.094;2022-12-18T06:28:21;1.00;41.20
11989;DHT22;6054;50.966;7.094;2022-12-18T06:30:48;1.00;41.30
11989;DHT22;6054;50.966;7.094;2022-12-18T06:33:17;1.00;42.50
11989;DHT22;6054;50.966;7.094;2022-12-18T06:35:44;1.00;41.50
11989;DHT22;6054;50.966;7.094;2022-12-18T06:38:10;0.90;41.50
11989;DHT22;6054;50.966;7.094;2022-12-18T06:40:38;1.00;41.30
11989;DHT22;6054;50.966;7.094;2022-12-18T06:43:05;1.30;42.60
11989;DHT22;6054;50.966;7.094;2022-12-18T06:45:32;1.30;42.20
11989;DHT22;6054;50.966;7.094;2022-12-18T06:47:59;1.00;41.70
11989;DHT22;6054;50.966;7.094;2022-12-18T06:50:27;0.90;41.40
11989;DHT22;6054;50.966;7.094;2022-12-18T06:52:54;1.30;42.30
11989;DHT22;6054;50.966;7.094;2022-12-18T06:55:21;1.00;42.10
11989;DHT22;6054;50.966;7.094;2022-12-18T06:57:48;1.00;42.20
11989;DHT22;6054;50.966;7.094;2022-12-18T07:00:15;0.90;42.30
11989;DHT22;6054;50.966;7.094;2022-12-18T07:02:44;1.00;41.00
11989;DHT22;6054;50.966;7.094;2022-12-18T07:05:11;0.90;41.90
11989;DHT22;6054;50.966;7.094;2022-12-18T07:07:39;0.90;41.00
11989;DHT22;6054;50.966;7.094;2022-12-18T07:10:06;1.20;41.90
11989;DHT22;6054;50.966;7.094;2022-12-18T07:12:33;1.00;41.90
11989;DHT22;6054;50.966;7.094;2022-12-18T07:15:00;0.90;41.40
11989;DHT22;6054;50.966;7.094;2022-12-18T07:17:27;0.80;41.50
11989;DHT22;6054;50.966;7.094;2022-12-18T07:19:55;0.80;41.90
11989;DHT22;6054;50.966;7.094;2022-12-18T07:22:21;0.80;41.40
11989;DHT22;6054;50.966;7.094;2022-12-18T07:24:50;0.80;41.10
11989;DHT22;6054;50.966;7.094;2022-12-18T07:27:16;0.80;41.60
11989;DHT22;6054;50.966;7.094;2022-12-18T07:29:43;0.80;42.00
11989;DHT22;6054;50.966;7.094;2022-12-18T07:32:10;0.80;41.20
11989;DHT22;6054;50.966;7.094;2022-12-18T07:34:37;0.80;42.00
11989;DHT22;6054;50.966;7.094;2022-12-18T07:37:04;0.80;41.30
11989;DHT22;6054;50.966;7.094;2022-12-18T07:39:31;0.80;42.40
11989;DHT22;6054;50.966;7.094;2022-12-18T07:41:59;0.80;41.90
11989;DHT22;6054;50.966;7.094;2022-12-18T07:44:42;0.70;42.60
11989;DHT22;6054;50.966;7.094;2022-12-18T07:47:09;0.80;43.00
11989;DHT22;6054;50.966;7.094;2022-12-18T07:49:36;0.80;41.70
11989;DHT22;6054;50.966;7.094;2022-12-18T07:52:03;0.80;41.50
11989;DHT22;6054;50.966;7.094;2022-12-18T07:54:29;1.10;42.20
11989;DHT22;6054;50.966;7.094;2022-12-18T07:56:56;0.80;42.00
11989;DHT22;6054;50.966;7.094;2022-12-18T07:59:24;0.70;41.90
11989;DHT22;6054;50.966;7.094;2022-12-18T08:01:51;0.80;42.10
11989;DHT22;6054;50.966;7.094;2022-12-18T08:04:18;0.80;42.00
11989;DHT22;6054;50.966;7.094;2022-12-18T08:06:45;0.80;42.10
11989;DHT22;6054;50.966;7.094;2022-12-18T08:09:12;0.80;42.60
11989;DHT22;6054;50.966;7.094;2022-12-18T08:11:39;0.80;42.50
11989;DHT22;6054;50.966;7.094;2022-12-18T08:14:06;0.80;42.50
11989;DHT22;6054;50.966;7.094;2022-12-18T08:16:34;0.80;42.20
11989;DHT22;6054;50.966;7.094;2022-12-18T08:19:01;0.80;42.00
11989;DHT22;6054;50.966;7.094;2022-12-18T08:21:29;0.80;42.70
11989;DHT22;6054;50.966;7.094;2022-12-18T08:23:58;0.80;43.70
11989;DHT22;6054;50.966;7.094;2022-12-18T08:26:27;0.80;43.60
11989;DHT22;6054;50.966;7.094;2022-12-18T08:28:54;0.90;43.80
11989;DHT22;6054;50.966;7.094;2022-12-18T08:31:22;0.90;43.60
11989;DHT22;6054;50.966;7.094;2022-12-18T08:33:51;1.10;43.50
11989;DHT22;6054;50.966;7.094;2022-12-18T08:36:18;0.90;43.90
11989;DHT22;6054;50.966;7.094;2022-12-18T08:38:45;1.00;44.20
11989;DHT22;6054;50.966;7.094;2022-12-18T08:41:14;1.00;43.90
11989;DHT22;6054;50.966;7.094;2022-12-18T08:43:41;1.10;44.40
11989;DHT22;6054;50.966;7.094;2022-12-18T08:46:27;1.00;44.10
11989;DHT22;6054;50.966;7.094;2022-12-18T08:48:58;1.10;44.70
11989;DHT22;6054;50.966;7.094;2022-12-18T08:51:25;1.10;44.40
11989;DHT22;6054;50.966;7.094;2022-12-18T08:53:52;1.20;44.30
11989;DHT22;6054;50.966;7.094;2022-12-18T08:56:19;1.20;44.70
11989;DHT22;6054;50.966;7.094;2022-12-18T08:58:45;1.30;44.70
11989;DHT22;6054;50.966;7.094;2022-12-18T09:01:13;1.60;44.10
11989;DHT22;6054;50.966;7.094;2022-12-18T09:03:40;1.40;44.10
11989;DHT22;6054;50.966;7.094;2022-12-18T09:06:09;1.40;45.40
11989;DHT22;6054;50.966;7.094;2022-12-18T09:08:36;1.60;44.60
11989;DHT22;6054;50.966;7.094;2022-12-18T09:11:03;1.70;43.50
11989;DHT22;6054;50.966;7.094;2022-12-18T09:13:39;1.80;45.30
11989;DHT22;6054;50.966;7.094;2022-12-18T09:19:18;2.00;45.80
11989;DHT22;6054;50.966;7.094;2022-12-18T09:21:47;2.20;45.10
11989;DHT22;6054;50.966;7.094;2022-12-18T09:24:29;2.20;46.30
11989;DHT22;6054;50.966;7.094;2022-12-18T09:27:04;2.40;45.10
11989;DHT22;6054;50.966;7.094;2022-12-18T09:29:32;2.70;47.50
11989;DHT22;6054;50.966;7.094;2022-12-18T09:32:07;2.50;46.20
11989;DHT22;6054;50.966;7.094;2022-12-18T09:34:34;2.80;46.30
11989;DHT22;6054;50.966;7.094;2022-12-18T09:37:02;2.90;45.60
11989;DHT22;6054;50.966;7.094;2022-12-18T09:39:29;2.70;46.70
11989;DHT22;6054;50.966;7.094;2022-12-18T09:41:58;2.80;45.10
11989;DHT22;6054;50.966;7.094;2022-12-18T09:44:43;2.90;47.40
11989;DHT22;6054;50.966;7.094;2022-12-18T09:47:23;3.00;47.90
11989;DHT22;6054;50.966;7.094;2022-12-18T09:49:53;3.10;47.70
11989;DHT22;6054;50.966;7.094;2022-12-18T09:52:26;3.20;47.20
11989;DHT22;6054;50.966;7.094;2022-12-18T09:54:57;3.50;47.90
11989;DHT22;6054;50.966;7.094;2022-12-18T09:57:29;3.30;46.10
11989;DHT22;6054;50.966;7.094;2022-12-18T10:03:10;3.70;47.70
11989;DHT22;6054;50.966;7.094;2022-12-18T10:05:42;3.60;46.90
11989;DHT22;6054;50.966;7.094;2022-12-18T10:08:22;3.50;46.20
11989;DHT22;6054;50.966;7.094;2022-12-18T10:10:53;3.60;46.90
11989;DHT22;6054;50.966;7.094;2022-12-18T10:13:24;3.70;47.10
11989;DHT22;6054;50.966;7.094;2022-12-18T10:16:08;3.70;46.90
11989;DHT22;6054;50.966;7.094;2022-12-18T10:18:52;3.80;47.10
11989;DHT22;6054;50.966;7.094;2022-12-18T10:21:26;3.80;46.90
11989;DHT22;6054;50.966;7.094;2022-12-18T10:23:59;3.90;46.70
11989;DHT22;6054;50.966;7.094;2022-12-18T10:26:31;3.90;46.60
11989;DHT22;6054;50.966;7.094;2022-12-18T10:28:58;4.00;46.40
11989;DHT22;6054;50.966;7.094;2022-12-18T10:31:25;4.00;46.20
11989;DHT22;6054;50.966;7.094;2022-12-18T10:33:53;4.00;46.10
11989;DHT22;6054;50.966;7.094;2022-12-18T10:36:20;4.10;45.80
11989;DHT22;6054;50.966;7.094;2022-12-18T10:38:47;4.20;46.00
11989;DHT22;6054;50.966;7.094;2022-12-18T10:41:25;4.30;45.90
11989;DHT22;6054;50.966;7.094;2022-12-18T10:44:12;4.30;46.40
11989;DHT22;6054;50.966;7.094;2022-12-18T10:46:39;4.40;46.10
11989;DHT22;6054;50.966;7.094;2022-12-18T10:49:19;4.40;46.00
11989;DHT22;6054;50.966;7.094;2022-12-18T10:51:47;4.50;46.10
11989;DHT22;6054;50.966;7.094;2022-12-18T10:54:16;4.50;45.70
11989;DHT22;6054;50.966;7.094;2022-12-18T10:56:45;4.60;45.70
11989;DHT22;6054;50.966;7.094;2022-12-18T10:59:14;4.60;45.40
11989;DHT22;6054;50.966;7.094;2022-12-18T11:01:51;4.70;45.70
11989;DHT22;6054;50.966;7.094;2022-12-18T11:04:21;4.70;45.40
11989;DHT22;6054;50.966;7.094;2022-12-18T11:06:59;4.80;45.70
11989;DHT22;6054;50.966;7.094;2022-12-18T11:09:28;4.80;45.40
11989;DHT22;6054;50.966;7.094;2022-12-18T11:11:59;4.90;45.30
11989;DHT22;6054;50.966;7.094;2022-12-18T11:14:28;4.80;44.90
11989;DHT22;6054;50.966;7.094;2022-12-18T11:16:56;4.90;44.90
11989;DHT22;6054;50.966;7.094;2022-12-18T11:19:32;5.00;45.00
11989;DHT22;6054;50.966;7.094;2022-12-18T11:22:01;5.00;44.80
11989;DHT22;6054;50.966;7.094;2022-12-18T11:24:31;5.20;45.00
11989;DHT22;6054;50.966;7.094;2022-12-18T11:27:01;5.10;44.60
11989;DHT22;6054;50.966;7.094;2022-12-18T11:29:36;5.10;44.60
11989;DHT22;6054;50.966;7.094;2022-12-18T11:32:24;5.10;44.20
11989;DHT22;6054;50.966;7.094;2022-12-18T11:34:58;5.10;44.10
11989;DHT22;6054;50.966;7.094;2022-12-18T11:37:26;5.20;44.20
11989;DHT22;6054;50.966;7.094;2022-12-18T11:39:57;5.40;43.90
11989;DHT22;6054;50.966;7.094;2022-12-18T11:42:33;5.20;44.00
11989;DHT22;6054;50.966;7.094;2022-12-18T11:45:08;5.20;44.20
11989;DHT22;6054;50.966;7.094;2022-12-18T11:47:45;5.30;44.20
11989;DHT22;6054;50.966;7.094;2022-12-18T11:50:16;5.30;44.20
11989;DHT22;6054;50.966;7.094;2022-12-18T11:52:43;5.30;44.00
11989;DHT22;6054;50.966;7.094;2022-12-18T11:55:12;5.30;43.60
11989;DHT22;6054;50.966;7.094;2022-12-18T11:57:49;5.30;44.40
11989;DHT22;6054;50.966;7.094;2022-12-18T12:00:21;5.40;44.00
11989;DHT22;6054;50.966;7.094;2022-12-18T12:03:19;5.40;43.90
11989;DHT22;6054;50.966;7.094;2022-12-18T12:06:05;5.50;43.90
11989;DHT22;6054;50.966;7.094;2022-12-18T12:08:44;5.40;43.70
11989;DHT22;6054;50.966;7.094;2022-12-18T12:11:17;5.30;43.60
11989;DHT22;6054;50.966;7.094;2022-12-18T12:14:10;5.30;43.50
11989;DHT22;6054;50.966;7.094;2022-12-18T12:16:48;5.30;43.60
11989;DHT22;6054;50.966;7.094;2022-12-18T12:19:26;5.40;43.70
11989;DHT22;6054;50.966;7.094;2022-12-18T12:22:02;5.40;43.60
11989;DHT22;6054;50.966;7.094;2022-12-18T12:24:38;5.60;43.70
11989;DHT22;6054;50.966;7.094;2022-12-18T12:27:17;5.40;43.70
11989;DHT22;6054;50.966;7.094;2022-12-18T12:29:54;5.40;43.60
11989;DHT22;6054;50.966;7.094;2022-12-18T12:32:34;5.40;43.70
11989;DHT22;6054;50.966;7.094;2022-12-18T12:35:16;5.40;43.70
11989;DHT22;6054;50.966;7.094;2022-12-18T12:37:55;5.40;43.50
11989;DHT22;6054;50.966;7.094;2022-12-18T12:40:26;5.40;43.70
11989;DHT22;6054;50.966;7.094;2022-12-18T12:42:55;5.40;43.70
11989;DHT22;6054;50.966;7.094;2022-12-18T12:45:44;5.40;43.70
11989;DHT22;6054;50.966;7.094;2022-12-18T12:48:19;5.40;43.70
11989;DHT22;6054;50.966;7.094;2022-12-18T12:50:47;5.40;43.60
11989;DHT22;6054;50.966;7.094;2022-12-18T12:53:21;5.40;43.20
11989;DHT22;6054;50.966;7.094;2022-12-18T12:55:48;5.30;43.60
11989;DHT22;6054;50.966;7.094;2022-12-18T12:58:20;5.40;43.10
11989;DHT22;6054;50.966;7.094;2022-12-18T13:01:01;5.30;43.00
11989;DHT22;6054;50.966;7.094;2022-12-18T13:03:42;5.30;43.40
11989;DHT22;6054;50.966;7.094;2022-12-18T13:06:16;5.40;43.40
11989;DHT22;6054;50.966;7.094;2022-12-18T13:08:54;5.30;43.40
11989;DHT22;6054;50.966;7.094;2022-12-18T13:11:39;5.30;43.50
11989;DHT22;6054;50.966;7.094;2022-12-18T13:14:28;5.20;43.00
11989;DHT22;6054;50.966;7.094;2022-12-18T13:17:24;5.20;43.40
11989;DHT22;6054;50.966;7.094;2022-12-18T13:20:07;5.30;43.50
11989;DHT22;6054;50.966;7.094;2022-12-18T13:22:36;5.20;43.40
11989;DHT22;6054;50.966;7.094;2022-12-18T13:25:04;5.20;43.30
11989;DHT22;6054;50.966;7.094;2022-12-18T13:28:06;5.30;43.30
11989;DHT22;6054;50.966;7.094;2022-12-18T13:30:57;5.40;43.20
11989;DHT22;6054;50.966;7.094;2022-12-18T13:33:40;5.60;43.10
11989;DHT22;6054;50.966;7.094;2022-12-18T13:36:32;5.40;43.20
11989;DHT22;6054;50.966;7.094;2022-12-18T13:39:32;5.40;43.20
11989;DHT22;6054;50.966;7.094;2022-12-18T13:42:31;5.40;42.90
11989;DHT22;6054;50.966;7.094;2022-12-18T13:45:39;5.40;43.10
11989;DHT22;6054;50.966;7.094;2022-12-18T13:48:16;5.30;43.10
11989;DHT22;6054;50.966;7.094;2022-12-18T13:50:52;5.30;43.10
11989;DHT22;6054;50.966;7.094;2022-12-18T13:53:22;5.40;43.20
11989;DHT22;6054;50.966;7.094;2022-12-18T13:55:50;5.40;43.00
11989;DHT22;6054;50.966;7.094;2022-12-18T13:58:17;5.50;42.90
11989;DHT22;6054;50.966;7.094;2022-12-18T14:00:44;5.50;42.30
11989;DHT22;6054;50.966;7.094;2022-12-18T14:03:23;5.60;42.60
11989;DHT22;6054;50.966;7.094;2022-12-18T14:05:59;5.50;42.90
11989;DHT22;6054;50.966;7.094;2022-12-18T14:08:32;5.50;42.90
11989;DHT22;6054;50.966;7.094;2022-12-18T14:11:00;5.50;42.90
11989;DHT22;6054;50.966;7.094;2022-12-18T14:13:30;5.50;42.70
11989;DHT22;6054;50.966;7.094;2022-12-18T14:15:58;5.50;42.80
11989;DHT22;6054;50.966;7.094;2022-12-18T14:18:31;5.50;42.70
11989;DHT22;6054;50.966;7.094;2022-12-18T14:21:02;5.50;42.90
11989;DHT22;6054;50.966;7.094;2022-12-18T14:23:32;5.50;42.80
11989;DHT22;6054;50.966;7.094;2022-12-18T14:26:00;5.60;42.90
11989;DHT22;6054;50.966;7.094;2022-12-18T14:28:27;5.60;42.60
11989;DHT22;6054;50.966;7.094;2022-12-18T14:30:54;5.60;42.20
11989;DHT22;6054;50.966;7.094;2022-12-18T14:33:23;5.60;42.60
11989;DHT22;6054;50.966;7.094;2022-12-18T14:35:56;5.50;42.70
11989;DHT22;6054;50.966;7.094;2022-12-18T14:38:27;5.50;42.80
11989;DHT22;6054;50.966;7.094;2022-12-18T14:41:05;5.50;42.80
11989;DHT22;6054;50.966;7.094;2022-12-18T14:43:34;5.40;42.80
11989;DHT22;6054;50.966;7.094;2022-12-18T14:46:02;5.40;42.70
11989;DHT22;6054;50.966;7.094;2022-12-18T14:48:37;5.50;42.80
11989;DHT22;6054;50.966;7.094;2022-12-18T14:51:06;5.50;42.80
11989;DHT22;6054;50.966;7.094;2022-12-18T14:53:37;5.50;42.60
11989;DHT22;6054;50.966;7.094;2022-12-18T14:56:14;5.60;42.70
11989;DHT22;6054;50.966;7.094;2022-12-18T14:58:48;5.50;42.70
11989;DHT22;6054;50.966;7.094;2022-12-18T15:01:37;5.60;42.70
11989;DHT22;6054;50.966;7.094;2022-12-18T15:04:18;5.60;42.50
11989;DHT22;6054;50.966;7.094;2022-12-18T15:07:03;5.60;42.50
11989;DHT22;6054;50.966;7.094;2022-12-18T15:09:31;5.60;42.50
11989;DHT22;6054;50.966;7.094;2022-12-18T15:11:58;5.70;42.00
11989;DHT22;6054;50.966;7.094;2022-12-18T15:14:39;5.60;42.30
11989;DHT22;6054;50.966;7.094;2022-12-18T15:17:15;5.60;42.30
11989;DHT22;6054;50.966;7.094;2022-12-18T15:19:44;5.60;42.50
11989;DHT22;6054;50.966;7.094;2022-12-18T15:22:18;5.60;42.30
11989;DHT22;6054;50.966;7.094;2022-12-18T15:24:47;5.60;42.30
11989;DHT22;6054;50.966;7.094;2022-12-18T15:27:28;5.60;42.00
11989;DHT22;6054;50.966;7.094;2022-12-18T15:30:25;5.60;42.30
11989;DHT22;6054;50.966;7.094;2022-12-18T15:33:16;5.60;42.10
11989;DHT22;6054;50.966;7.094;2022-12-18T15:35:44;5.60;42.30
11989;DHT22;6054;50.966;7.094;2022-12-18T15:38:11;5.60;41.90
11989;DHT22;6054;50.966;7.094;2022-12-18T15:40:38;5.50;41.90
11989;DHT22;6054;50.966;7.094;2022-12-18T15:43:07;5.60;41.80
11989;DHT22;6054;50.966;7.094;2022-12-18T15:45:52;5.60;42.40
11989;DHT22;6054;50.966;7.094;2022-12-18T15:48:21;5.80;42.10
11989;DHT22;6054;50.966;7.094;2022-12-18T15:50:50;5.60;42.30
11989;DHT22;6054;50.966;7.094;2022-12-18T15:53:18;5.60;42.20
11989;DHT22;6054;50.966;7.094;2022-12-18T15:55:45;5.50;42.40
11989;DHT22;6054;50.966;7.094;2022-12-18T15:58:29;5.50;42.50
11989;DHT22;6054;50.966;7.094;2022-12-18T16:00:58;5.60;42.20
11989;DHT22;6054;50.966;7.094;2022-12-18T16:03:25;5.50;42.60
11989;DHT22;6054;50.966;7.094;2022-12-18T16:05:54;5.60;42.20
11989;DHT22;6054;50.966;7.094;2022-12-18T16:08:20;5.50;42.50
11989;DHT22;6054;50.966;7.094;2022-12-18T16:10:47;5.50;42.20
11989;DHT22;6054;50.966;7.094;2022-12-18T16:13:16;5.50;42.40
11989;DHT22;6054;50.966;7.094;2022-12-18T16:15:45;5.50;42.90
11989;DHT22;6054;50.966;7.094;2022-12-18T16:18:12;5.50;42.50
11989;DHT22;6054;50.966;7.094;2022-12-18T16:20:39;5.50;42.70
11989;DHT22;6054;50.966;7.094;2022-12-18T16:23:07;5.50;42.90
11989;DHT22;6054;50.966;7.094;2022-12-18T16:25:34;5.40;42.80
11989;DHT22;6054;50.966;7.094;2022-12-18T16:28:01;5.40;42.50
11989;DHT22;6054;50.966;7.094;2022-12-18T16:30:29;5.30;42.60
11989;DHT22;6054;50.966;7.094;2022-12-18T16:32:57;5.30;43.40
11989;DHT22;6054;50.966;7.094;2022-12-18T16:35:25;5.30;43.60